sensor_id;sensor_type;location;lat;lon;timestamp;temperature;humidity
9800;DHT22;4939;52.00085300;4.17406100;2023-03-01T00:01:07;2.00;99.90
9800;DHT22;4939;52.00085300;4.17406100;2023-03-01T00:03:33;2.00;99.90
9800;DHT22;4939;52.00085300;4.17406100;2023-03-01T00:05:59;2.00;99.90
9800;DHT22;4939;52.00085300;4.17406100;2023-03-01T00:08:26;2.00;99.90
9800;DHT22;4939;52.00085300;4.17406100;2023-03-01T00:11:15;2.00;99.90
9800;DHT22;4939;52.00085300;4.17406100;2023-03-01T00:13:43;2.00;99.90
9800;DHT22;4939;52.00085300;4.17406100;2023-03-01T00:16:14;2.00;99.90
9800;DHT22;4939;52.00085300;4.17406100;2023-03-01T00:18:40;1.90;99.90
9800;DHT22;4939;52.00085300;4.17406100;2023-03-01T00:21:05;2.00;99.90
9800;DHT22;4939;52.00085300;4.17406100;2023-03-01T00:23:34;2.00;99.90
9800;DHT22;4939;52.00085300;4.17406100;2023-03-01T00:26:00;1.90;99.90
9800;DHT22;4939;52.00085300;4.17406100;2023-03-01T00:28:26;2.00;99.90
9800;DHT22;4939;52.00085300;4.17406100;2023-03-01T00:30:52;2.00;99.90
9800;DHT22;4939;52.00085300;4.17406100;2023-03-01T00:33:18;1.90;99.90
9800;DHT22;4939;52.00085300;4.17406100;2023-03-01T00:35:44;1.90;99.90
9800;DHT22;4939;52.00085300;4.17406100;2023-03-01T00:38:09;1.80;99.90
9800;DHT22;4939;52.00085300;4.17406100;2023-03-01T00:40:36;1.80;99.90
9800;DHT22;4939;52.00085300;4.17406100;2023-03-01T00:43:03;1.80;99.90
9800;DHT22;4939;52.00085300;4.17406100;2023-03-01T00:45:29;1.80;99.90
9800;DHT22;4939;52.00085300;4.17406100;2023-03-01T00:47:56;1.80;99.90
9800;DHT22;4939;52.00085300;4.17406100;2023-03-01T00:50:23;1.80;99.90
9800;DHT22;4939;52.00085300;4.17406100;2023-03-01T00:52:53;1.80;99.90
9800;DHT22;4939;52.00085300;4.17406100;2023-03-01T00:55:19;1.80;99.90
9800;DHT22;4939;52.00085300;4.17406100;2023-03-01T00:57:44;1.80;99.90
9800;DHT22;4939;52.00085300;4.17406100;2023-03-01T01:00:11;1.80;99.90
9800;DHT22;4939;52.00085300;4.17406100;2023-03-01T01:02:37;1.80;99.90
9800;DHT22;4939;52.00085300;4.17406100;2023-03-01T01:05:03;1.80;99.90
9800;DHT22;4939;52.00085300;4.17406100;2023-03-01T01:07:29;1.80;99.90
9800;DHT22;4939;52.00085300;4.17406100;2023-03-01T01:09:55;1.70;99.90
9800;DHT22;4939;52.00085300;4.17406100;2023-03-01T01:12:21;1.70;99.90
9800;DHT22;4939;52.00085300;4.17406100;2023-03-01T01:14:47;1.60;99.90
9800;DHT22;4939;52.00085300;4.17406100;2023-03-01T01:17:12;1.50;99.90
9800;DHT22;4939;52.00085300;4.17406100;2023-03-01T01:19:38;1.50;99.90
9800;DHT22;4939;52.00085300;4.17406100;2023-03-01T01:22:04;1.50;99.90
9800;DHT22;4939;52.00085300;4.17406100;2023-03-01T01:24:29;1.40;99.90
9800;DHT22;4939;52.00085300;4.17406100;2023-03-01T01:26:55;1.40;99.90
9800;DHT22;4939;52.00085300;4.17406100;2023-03-01T01:29:22;1.40;99.90
9800;DHT22;4939;52.00085300;4.17406100;2023-03-01T01:31:48;1.30;99.90
9800;DHT22;4939;52.00085300;4.17406100;2023-03-01T01:34:16;1.30;99.90
9800;DHT22;4939;52.00085300;4.17406100;2023-03-01T01:36:42;1.20;99.90
9800;DHT22;4939;52.00085300;4.17406100;2023-03-01T01:39:08;1.20;99.90
9800;DHT22;4939;52.00085300;4.17406100;2023-03-01T01:41:39;1.10;99.90
9800;DHT22;4939;52.00085300;4.17406100;2023-03-01T01:46:41;1.00;99.90
9800;DHT22;4939;52.00085300;4.17406100;2023-03-01T01:49:31;0.90;99.90
9800;DHT22;4939;52.00085300;4.17406100;2023-03-01T01:52:07;0.90;99.90
9800;DHT22;4939;52.00085300;4.17406100;2023-03-01T01:54:56;0.80;99.90
9800;DHT22;4939;52.00085300;4.17406100;2023-03-01T01:57:41;0.80;99.90
9800;DHT22;4939;52.00085300;4.17406100;2023-03-01T02:00:23;0.80;99.90
9800;DHT22;4939;52.00085300;4.17406100;2023-03-01T02:02:54;0.70;99.90
9800;DHT22;4939;52.00085300;4.17406100;2023-03-01T02:08:11;0.60;99.90
9800;DHT22;4939;52.00085300;4.17406100;2023-03-01T02:10:38;0.60;99.90
9800;DHT22;4939;52.00085300;4.17406100;2023-03-01T02:13:05;0.50;99.90
9800;DHT22;4939;52.00085300;4.17406100;2023-03-01T02:15:35;0.50;99.90
9800;DHT22;4939;52.00085300;4.17406100;2023-03-01T02:18:02;0.50;99.90
9800;DHT22;4939;52.00085300;4.17406100;2023-03-01T02:23:25;0.40;99.90
9800;DHT22;4939;52.00085300;4.17406100;2023-03-01T02:26:21;0.40;99.90
9800;DHT22;4939;52.00085300;4.17406100;2023-03-01T02:28:50;0.40;99.90
9800;DHT22;4939;52.00085300;4.17406100;2023-03-01T02:31:18;0.40;99.90
9800;DHT22;4939;52.00085300;4.17406100;2023-03-01T02:34:02;0.40;99.90
9800;DHT22;4939;52.00085300;4.17406100;2023-03-01T02:36:38;0.40;99.90
9800;DHT22;4939;52.00085300;4.17406100;2023-03-01T02:39:07;0.40;99.90
9800;DHT22;4939;52.00085300;4.17406100;2023-03-01T02:41:42;0.30;99.90
9800;DHT22;4939;52.00085300;4.17406100;2023-03-01T02:44:08;0.30;99.90
9800;DHT22;4939;52.00085300;4.17406100;2023-03-01T02:46:41;0.20;99.90
9800;DHT22;4939;52.00085300;4.17406100;2023-03-01T02:49:31;0.10;99.90
9800;DHT22;4939;52.00085300;4.17406100;2023-03-01T02:52:20;0.10;99.90
9800;DHT22;4939;52.00085300;4.17406100;2023-03-01T02:55:01;0.10;99.90
9800;DHT22;4939;52.00085300;4.17406100;2023-03-01T02:57:28;0.00;99.90
9800;DHT22;4939;52.00085300;4.17406100;2023-03-01T02:59:57;0.10;99.90
9800;DHT22;4939;52.00085300;4.17406100;2023-03-01T03:02:27;-0.10;99.90
9800;DHT22;4939;52.00085300;4.17406100;2023-03-01T03:05:22;-0.10;99.90
9800;DHT22;4939;52.00085300;4.17406100;2023-03-01T03:07:49;-0.10;99.90
9800;DHT22;4939;52.00085300;4.17406100;2023-03-01T03:10:21;-0.10;99.90
9800;DHT22;4939;52.00085300;4.17406100;2023-03-01T03:12:55;-0.10;99.90
9800;DHT22;4939;52.00085300;4.17406100;2023-03-01T03:15:21;-0.10;99.90
9800;DHT22;4939;52.00085300;4.17406100;2023-03-01T03:17:49;-0.10;99.90
9800;DHT22;4939;52.00085300;4.17406100;2023-03-01T03:20:17;-0.10;99.90
9800;DHT22;4939;52.00085300;4.17406100;2023-03-01T03:22:50;-0.20;99.90
9800;DHT22;4939;52.00085300;4.17406100;2023-03-01T03:25:17;-0.30;99.90
9800;DHT22;4939;52.00085300;4.17406100;2023-03-01T03:27:45;-0.20;99.90
9800;DHT22;4939;52.00085300;4.17406100;2023-03-01T03:30:13;-0.20;99.90
9800;DHT22;4939;52.00085300;4.17406100;2023-03-01T03:32:40;-0.30;99.90
9800;DHT22;4939;52.00085300;4.17406100;2023-03-01T03:35:08;-0.30;99.90
9800;DHT22;4939;52.00085300;4.17406100;2023-03-01T03:37:39;-0.30;99.90
9800;DHT22;4939;52.00085300;4.17406100;2023-03-01T03:40:24;-0.30;99.90
9800;DHT22;4939;52.00085300;4.17406100;2023-03-01T03:42:50;-0.30;99.90
9800;DHT22;4939;52.00085300;4.17406100;2023-03-01T03:45:17;-0.40;99.90
9800;DHT22;4939;52.00085300;4.17406100;2023-03-01T03:47:42;-0.40;99.90
9800;DHT22;4939;52.00085300;4.17406100;2023-03-01T03:50:10;-0.40;99.90
9800;DHT22;4939;52.00085300;4.17406100;2023-03-01T03:52:36;-0.40;99.90
9800;DHT22;4939;52.00085300;4.17406100;2023-03-01T03:55:02;-0.40;99.90
9800;DHT22;4939;52.00085300;4.17406100;2023-03-01T03:57:27;-0.50;99.90
9800;DHT22;4939;52.00085300;4.17406100;2023-03-01T03:59:53;-0.50;99.90
9800;DHT22;4939;52.00085300;4.17406100;2023-03-01T04:02:19;-0.50;99.90
9800;DHT22;4939;52.00085300;4.17406100;2023-03-01T04:04:50;-0.50;99.90
9800;DHT22;4939;52.00085300;4.17406100;2023-03-01T04:07:19;-0.60;99.90
9800;DHT22;4939;52.00085300;4.17406100;2023-03-01T04:09:44;-0.60;99.90
9800;DHT22;4939;52.00085300;4.17406100;2023-03-01T04:12:10;-0.60;99.90
9800;DHT22;4939;52.00085300;4.17406100;2023-03-01T04:14:36;-0.70;99.90
9800;DHT22;4939;52.00085300;4.17406100;2023-03-01T04:17:02;-0.70;99.90
9800;DHT22;4939;52.00085300;4.17406100;2023-03-01T04:19:31;-0.60;99.90
9800;DHT22;4939;52.00085300;4.17406100;2023-03-01T04:22:04;-0.60;99.90
9800;DHT22;4939;52.00085300;4.17406100;2023-03-01T04:24:35;-0.70;99.90
9800;DHT22;4939;52.00085300;4.17406100;2023-03-01T04:27:01;-0.70;99.90
9800;DHT22;4939;52.00085300;4.17406100;2023-03-01T04:29:27;-0.70;99.90
9800;DHT22;4939;52.00085300;4.17406100;2023-03-01T04:31:52;-0.70;99.90
9800;DHT22;4939;52.00085300;4.17406100;2023-03-01T04:34:18;-0.70;99.90
9800;DHT22;4939;52.00085300;4.17406100;2023-03-01T04:36:44;-0.70;99.90
9800;DHT22;4939;52.00085300;4.17406100;2023-03-01T04:39:10;-0.70;99.90
9800;DHT22;4939;52.00085300;4.17406100;2023-03-01T04:41:38;-0.70;99.90
9800;DHT22;4939;52.00085300;4.17406100;2023-03-01T04:44:05;-0.70;99.90
9800;DHT22;4939;52.00085300;4.17406100;2023-03-01T04:46:31;-0.60;99.90
9800;DHT22;4939;52.00085300;4.17406100;2023-03-01T04:48:56;-0.60;99.90
9800;DHT22;4939;52.00085300;4.17406100;2023-03-01T04:51:22;-0.60;99.90
9800;DHT22;4939;52.00085300;4.17406100;2023-03-01T04:53:48;-0.60;99.90
9800;DHT22;4939;52.00085300;4.17406100;2023-03-01T04:56:14;-0.50;99.90
9800;DHT22;4939;52.00085300;4.17406100;2023-03-01T04:58:40;-0.50;99.90
9800;DHT22;4939;52.00085300;4.17406100;2023-03-01T05:01:11;-0.50;99.90
9800;DHT22;4939;52.00085300;4.17406100;2023-03-01T05:03:44;-0.40;99.90
9800;DHT22;4939;52.00085300;4.17406100;2023-03-01T05:06:10;-0.30;99.90
9800;DHT22;4939;52.00085300;4.17406100;2023-03-01T05:08:40;-0.20;99.90
9800;DHT22;4939;52.00085300;4.17406100;2023-03-01T05:11:06;-0.10;99.90
9800;DHT22;4939;52.00085300;4.17406100;2023-03-01T05:13:36;-0.10;99.90
9800;DHT22;4939;52.00085300;4.17406100;2023-03-01T05:16:03;-0.10;99.90
9800;DHT22;4939;52.00085300;4.17406100;2023-03-01T05:18:31;0.00;99.90
9800;DHT22;4939;52.00085300;4.17406100;2023-03-01T05:21:04;0.00;99.90
9800;DHT22;4939;52.00085300;4.17406100;2023-03-01T05:23:31;0.00;99.90
9800;DHT22;4939;52.00085300;4.17406100;2023-03-01T05:25:58;-0.10;99.90
9800;DHT22;4939;52.00085300;4.17406100;2023-03-01T05:28:25;0.00;99.90
9800;DHT22;4939;52.00085300;4.17406100;2023-03-01T05:30:51;0.00;99.90
9800;DHT22;4939;52.00085300;4.17406100;2023-03-01T05:33:17;0.00;99.90
9800;DHT22;4939;52.00085300;4.17406100;2023-03-01T05:35:45;0.00;99.90
9800;DHT22;4939;52.00085300;4.17406100;2023-03-01T05:38:12;0.00;99.90
9800;DHT22;4939;52.00085300;4.17406100;2023-03-01T05:40:42;0.00;99.90
9800;DHT22;4939;52.00085300;4.17406100;2023-03-01T05:43:09;0.00;99.90
9800;DHT22;4939;52.00085300;4.17406100;2023-03-01T05:45:36;0.00;99.90
9800;DHT22;4939;52.00085300;4.17406100;2023-03-01T05:48:03;0.00;99.90
9800;DHT22;4939;52.00085300;4.17406100;2023-03-01T05:50:33;-0.10;99.90
9800;DHT22;4939;52.00085300;4.17406100;2023-03-01T05:53:04;-0.10;99.90
9800;DHT22;4939;52.00085300;4.17406100;2023-03-01T05:55:34;-0.20;99.90
9800;DHT22;4939;52.00085300;4.17406100;2023-03-01T05:58:02;-0.30;99.90
9800;DHT22;4939;52.00085300;4.17406100;2023-03-01T06:00:29;-0.40;99.90
9800;DHT22;4939;52.00085300;4.17406100;2023-03-01T06:02:56;-0.40;99.90
9800;DHT22;4939;52.00085300;4.17406100;2023-03-01T06:05:22;-0.50;99.90
9800;DHT22;4939;52.00085300;4.17406100;2023-03-01T06:07:49;-0.50;99.90
9800;DHT22;4939;52.00085300;4.17406100;2023-03-01T06:10:16;-0.60;99.90
9800;DHT22;4939;52.00085300;4.17406100;2023-03-01T06:12:43;-0.60;99.90
9800;DHT22;4939;52.00085300;4.17406100;2023-03-01T06:15:13;-0.50;99.90
9800;DHT22;4939;52.00085300;4.17406100;2023-03-01T06:17:41;-0.70;99.90
9800;DHT22;4939;52.00085300;4.17406100;2023-03-01T06:22:35;-0.70;99.90
9800;DHT22;4939;52.00085300;4.17406100;2023-03-01T06:25:01;-0.70;99.90
9800;DHT22;4939;52.00085300;4.17406100;2023-03-01T06:27:27;-0.70;99.90
9800;DHT22;4939;52.00085300;4.17406100;2023-03-01T06:29:52;-0.80;99.90
9800;DHT22;4939;52.00085300;4.17406100;2023-03-01T06:32:18;-0.80;99.90
9800;DHT22;4939;52.00085300;4.17406100;2023-03-01T06:34:44;-0.80;99.90
9800;DHT22;4939;52.00085300;4.17406100;2023-03-01T06:37:10;-0.80;99.90
9800;DHT22;4939;52.00085300;4.17406100;2023-03-01T06:39:35;-0.90;99.90
9800;DHT22;4939;52.00085300;4.17406100;2023-03-01T06:42:01;-0.90;99.90
9800;DHT22;4939;52.00085300;4.17406100;2023-03-01T06:44:26;-0.90;99.90
9800;DHT22;4939;52.00085300;4.17406100;2023-03-01T06:46:52;-0.90;99.90
9800;DHT22;4939;52.00085300;4.17406100;2023-03-01T06:49:18;-1.00;99.90
9800;DHT22;4939;52.00085300;4.17406100;2023-03-01T06:51:45;-1.00;99.90
9800;DHT22;4939;52.00085300;4.17406100;2023-03-01T06:54:12;-1.00;99.90
9800;DHT22;4939;52.00085300;4.17406100;2023-03-01T06:56:38;-1.00;99.90
9800;DHT22;4939;52.00085300;4.17406100;2023-03-01T06:59:04;-0.90;99.90
9800;DHT22;4939;52.00085300;4.17406100;2023-03-01T07:01:30;-1.00;99.90
9800;DHT22;4939;52.00085300;4.17406100;2023-03-01T07:03:56;-1.00;99.90
9800;DHT22;4939;52.00085300;4.17406100;2023-03-01T07:06:22;-1.00;99.90
9800;DHT22;4939;52.00085300;4.17406100;2023-03-01T07:08:48;-0.90;99.90
9800;DHT22;4939;52.00085300;4.17406100;2023-03-01T07:11:14;-1.00;99.90
9800;DHT22;4939;52.00085300;4.17406100;2023-03-01T07:13:40;-0.90;99.90
9800;DHT22;4939;52.00085300;4.17406100;2023-03-01T07:16:06;-0.90;99.90
9800;DHT22;4939;52.00085300;4.17406100;2023-03-01T07:18:32;-0.90;99.90
9800;DHT22;4939;52.00085300;4.17406100;2023-03-01T07:20:58;-0.80;99.90
9800;DHT22;4939;52.00085300;4.17406100;2023-03-01T07:23:23;-0.80;99.90
9800;DHT22;4939;52.00085300;4.17406100;2023-03-01T07:25:54;-0.70;99.90
9800;DHT22;4939;52.00085300;4.17406100;2023-03-01T07:28:21;-0.70;99.90
9800;DHT22;4939;52.00085300;4.17406100;2023-03-01T07:30:47;-0.50;99.90
9800;DHT22;4939;52.00085300;4.17406100;2023-03-01T07:33:13;-0.50;99.90
9800;DHT22;4939;52.00085300;4.17406100;2023-03-01T07:35:39;-0.50;99.90
9800;DHT22;4939;52.00085300;4.17406100;2023-03-01T07:38:04;-0.30;99.90
9800;DHT22;4939;52.00085300;4.17406100;2023-03-01T07:40:30;-0.30;99.90
9800;DHT22;4939;52.00085300;4.17406100;2023-03-01T07:42:57;-0.20;99.90
9800;DHT22;4939;52.00085300;4.17406100;2023-03-01T07:45:23;0.00;99.90
9800;DHT22;4939;52.00085300;4.17406100;2023-03-01T07:47:50;0.10;99.90
9800;DHT22;4939;52.00085300;4.17406100;2023-03-01T07:50:16;0.30;99.90
9800;DHT22;4939;52.00085300;4.17406100;2023-03-01T07:52:45;0.50;99.90
9800;DHT22;4939;52.00085300;4.17406100;2023-03-01T07:55:11;0.80;99.90
9800;DHT22;4939;52.00085300;4.17406100;2023-03-01T07:57:38;0.80;99.90
9800;DHT22;4939;52.00085300;4.17406100;2023-03-01T08:00:04;1.00;99.90
9800;DHT22;4939;52.00085300;4.17406100;2023-03-01T08:02:30;1.10;99.90
9800;DHT22;4939;52.00085300;4.17406100;2023-03-01T08:04:56;1.20;99.90
9800;DHT22;4939;52.00085300;4.17406100;2023-03-01T08:07:22;1.40;99.90
9800;DHT22;4939;52.00085300;4.17406100;2023-03-01T08:09:48;1.90;99.90
9800;DHT22;4939;52.00085300;4.17406100;2023-03-01T08:12:13;1.70;99.90
9800;DHT22;4939;52.00085300;4.17406100;2023-03-01T08:14:39;1.90;99.90
9800;DHT22;4939;52.00085300;4.17406100;2023-03-01T08:17:05;2.10;99.90
9800;DHT22;4939;52.00085300;4.17406100;2023-03-01T08:19:30;2.30;99.90
9800;DHT22;4939;52.00085300;4.17406100;2023-03-01T08:21:56;2.50;99.90
9800;DHT22;4939;52.00085300;4.17406100;2023-03-01T08:24:24;2.70;99.90
9800;DHT22;4939;52.00085300;4.17406100;2023-03-01T08:26:49;2.90;99.90
9800;DHT22;4939;52.00085300;4.17406100;2023-03-01T08:29:15;3.20;99.90
9800;DHT22;4939;52.00085300;4.17406100;2023-03-01T08:31:41;3.40;99.90
9800;DHT22;4939;52.00085300;4.17406100;2023-03-01T08:34:12;3.60;99.90
9800;DHT22;4939;52.00085300;4.17406100;2023-03-01T08:36:44;3.70;99.90
9800;DHT22;4939;52.00085300;4.17406100;2023-03-01T08:39:12;3.80;99.90
9800;DHT22;4939;52.00085300;4.17406100;2023-03-01T08:41:38;3.90;99.90
9800;DHT22;4939;52.00085300;4.17406100;2023-03-01T08:44:04;4.00;99.90
9800;DHT22;4939;52.00085300;4.17406100;2023-03-01T08:46:32;4.10;99.90
9800;DHT22;4939;52.00085300;4.17406100;2023-03-01T08:48:58;4.20;99.90
9800;DHT22;4939;52.00085300;4.17406100;2023-03-01T08:51:25;4.30;99.90
9800;DHT22;4939;52.00085300;4.17406100;2023-03-01T08:53:51;4.30;99.90
9800;DHT22;4939;52.00085300;4.17406100;2023-03-01T08:56:18;4.40;99.90
9800;DHT22;4939;52.00085300;4.17406100;2023-03-01T08:58:45;4.50;99.90
9800;DHT22;4939;52.00085300;4.17406100;2023-03-01T09:01:13;4.50;99.90
9800;DHT22;4939;52.00085300;4.17406100;2023-03-01T09:03:39;4.60;99.90
9800;DHT22;4939;52.00085300;4.17406100;2023-03-01T09:06:06;4.60;99.90
9800;DHT22;4939;52.00085300;4.17406100;2023-03-01T09:08:37;4.70;99.90
9800;DHT22;4939;52.00085300;4.17406100;2023-03-01T09:11:04;4.70;99.90
9800;DHT22;4939;52.00085300;4.17406100;2023-03-01T09:13:31;4.80;99.90
9800;DHT22;4939;52.00085300;4.17406100;2023-03-01T09:15:58;4.70;99.90
9800;DHT22;4939;52.00085300;4.17406100;2023-03-01T09:18:24;4.80;99.90
9800;DHT22;4939;52.00085300;4.17406100;2023-03-01T09:20:49;4.90;99.90
9800;DHT22;4939;52.00085300;4.17406100;2023-03-01T09:23:15;4.90;99.90
9800;DHT22;4939;52.00085300;4.17406100;2023-03-01T09:25:41;4.80;99.90
9800;DHT22;4939;52.00085300;4.17406100;2023-03-01T09:28:06;4.80;99.90
9800;DHT22;4939;52.00085300;4.17406100;2023-03-01T09:30:32;4.90;99.90
9800;DHT22;4939;52.00085300;4.17406100;2023-03-01T09:32:58;4.90;99.90
9800;DHT22;4939;52.00085300;4.17406100;2023-03-01T09:35:24;5.00;99.90
9800;DHT22;4939;52.00085300;4.17406100;2023-03-01T09:37:49;5.00;99.90
9800;DHT22;4939;52.00085300;4.17406100;2023-03-01T09:40:23;5.00;99.90
9800;DHT22;4939;52.00085300;4.17406100;2023-03-01T09:45:27;5.10;99.90
9800;DHT22;4939;52.00085300;4.17406100;2023-03-01T09:47:55;5.20;99.90
9800;DHT22;4939;52.00085300;4.17406100;2023-03-01T09:50:22;5.30;99.90
9800;DHT22;4939;52.00085300;4.17406100;2023-03-01T09:53:11;5.50;99.90
9800;DHT22;4939;52.00085300;4.17406100;2023-03-01T09:55:42;5.60;99.90
9800;DHT22;4939;52.00085300;4.17406100;2023-03-01T10:00:52;5.90;99.90
9800;DHT22;4939;52.00085300;4.17406100;2023-03-01T10:03:34;5.90;99.90
9800;DHT22;4939;52.00085300;4.17406100;2023-03-01T10:08:40;6.20;99.90
9800;DHT22;4939;52.00085300;4.17406100;2023-03-01T10:11:41;6.30;99.90
9800;DHT22;4939;52.00085300;4.17406100;2023-03-01T10:17:30;6.50;99.90
9800;DHT22;4939;52.00085300;4.17406100;2023-03-01T10:20:17;6.70;99.90
9800;DHT22;4939;52.00085300;4.17406100;2023-03-01T10:22:43;6.70;99.90
9800;DHT22;4939;52.00085300;4.17406100;2023-03-01T10:25:15;6.60;99.90
9800;DHT22;4939;52.00085300;4.17406100;2023-03-01T10:27:52;6.80;99.90
9800;DHT22;4939;52.00085300;4.17406100;2023-03-01T10:30:38;6.80;99.90
9800;DHT22;4939;52.00085300;4.17406100;2023-03-01T10:33:23;6.70;99.90
9800;DHT22;4939;52.00085300;4.17406100;2023-03-01T10:35:49;6.80;99.90
9800;DHT22;4939;52.00085300;4.17406100;2023-03-01T10:38:16;6.80;99.90
9800;DHT22;4939;52.00085300;4.17406100;2023-03-01T10:40:59;6.90;99.90
9800;DHT22;4939;52.00085300;4.17406100;2023-03-01T10:43:26;7.00;99.90
9800;DHT22;4939;52.00085300;4.17406100;2023-03-01T10:45:55;6.90;99.90
9800;DHT22;4939;52.00085300;4.17406100;2023-03-01T10:48:26;6.90;99.90
9800;DHT22;4939;52.00085300;4.17406100;2023-03-01T10:53:28;7.10;99.90
9800;DHT22;4939;52.00085300;4.17406100;2023-03-01T10:56:02;7.10;99.90
9800;DHT22;4939;52.00085300;4.17406100;2023-03-01T10:58:29;7.20;99.90
9800;DHT22;4939;52.00085300;4.17406100;2023-03-01T11:00:58;7.20;99.90
9800;DHT22;4939;52.00085300;4.17406100;2023-03-01T11:03:26;7.20;99.90
9800;DHT22;4939;52.00085300;4.17406100;2023-03-01T11:05:59;7.40;99.90
9800;DHT22;4939;52.00085300;4.17406100;2023-03-01T11:08:42;7.50;99.90
9800;DHT22;4939;52.00085300;4.17406100;2023-03-01T11:16:40;7.70;1.00
9800;DHT22;4939;52.00085300;4.17406100;2023-03-01T11:22:02;7.80;1.00
9800;DHT22;4939;52.00085300;4.17406100;2023-03-01T11:24:37;7.90;1.00
9800;DHT22;4939;52.00085300;4.17406100;2023-03-01T11:27:06;7.90;99.90
9800;DHT22;4939;52.00085300;4.17406100;2023-03-01T11:29:52;7.90;99.90
9800;DHT22;4939;52.00085300;4.17406100;2023-03-01T11:32:20;7.70;99.90
9800;DHT22;4939;52.00085300;4.17406100;2023-03-01T11:34:56;7.50;1.00
9800;DHT22;4939;52.00085300;4.17406100;2023-03-01T11:40:32;7.20;1.00
9800;DHT22;4939;52.00085300;4.17406100;2023-03-01T11:43:19;7.20;1.00
9800;DHT22;4939;52.00085300;4.17406100;2023-03-01T11:51:32;7.10;99.90
9800;DHT22;4939;52.00085300;4.17406100;2023-03-01T11:54:31;7.00;99.90
9800;DHT22;4939;52.00085300;4.17406100;2023-03-01T11:57:01;7.10;99.90
9800;DHT22;4939;52.00085300;4.17406100;2023-03-01T12:05:38;7.00;1.00
9800;DHT22;4939;52.00085300;4.17406100;2023-03-01T12:10:48;7.00;1.00
9800;DHT22;4939;52.00085300;4.17406100;2023-03-01T12:13:30;7.00;1.00
9800;DHT22;4939;52.00085300;4.17406100;2023-03-01T12:16:15;6.90;1.00
9800;DHT22;4939;52.00085300;4.17406100;2023-03-01T12:19:14;6.90;1.00
9800;DHT22;4939;52.00085300;4.17406100;2023-03-01T12:22:17;6.90;1.00
9800;DHT22;4939;52.00085300;4.17406100;2023-03-01T12:25:28;6.90;1.00
9800;DHT22;4939;52.00085300;4.17406100;2023-03-01T12:37:10;7.10;1.00
9800;DHT22;4939;52.00085300;4.17406100;2023-03-01T12:47:45;7.20;99.90
9800;DHT22;4939;52.00085300;4.17406100;2023-03-01T12:50:21;7.20;99.90
9800;DHT22;4939;52.00085300;4.17406100;2023-03-01T12:52:52;7.10;99.90
9800;DHT22;4939;52.00085300;4.17406100;2023-03-01T12:55:44;7.10;5.80
9800;DHT22;4939;52.00085300;4.17406100;2023-03-01T12:58:34;7.10;99.90
9800;DHT22;4939;52.00085300;4.17406100;2023-03-01T13:06:29;7.20;99.90
9800;DHT22;4939;52.00085300;4.17406100;2023-03-01T13:11:28;7.20;62.70
9800;DHT22;4939;52.00085300;4.17406100;2023-03-01T13:16:49;7.30;1.00
9800;DHT22;4939;52.00085300;4.17406100;2023-03-01T13:19:20;7.30;1.00
9800;DHT22;4939;52.00085300;4.17406100;2023-03-01T13:21:48;7.30;1.00
9800;DHT22;4939;52.00085300;4.17406100;2023-03-01T13:24:41;7.20;1.00
9800;DHT22;4939;52.00085300;4.17406100;2023-03-01T13:29:48;7.30;1.00
9800;DHT22;4939;52.00085300;4.17406100;2023-03-01T13:37:35;7.30;1.00
9800;DHT22;4939;52.00085300;4.17406100;2023-03-01T13:40:05;7.20;1.00
9800;DHT22;4939;52.00085300;4.17406100;2023-03-01T13:42:51;7.20;1.00
9800;DHT22;4939;52.00085300;4.17406100;2023-03-01T13:45:24;7.20;1.00
9800;DHT22;4939;52.00085300;4.17406100;2023-03-01T13:47:54;7.10;1.00
9800;DHT22;4939;52.00085300;4.17406100;2023-03-01T13:50:25;7.10;1.00
9800;DHT22;4939;52.00085300;4.17406100;2023-03-01T13:53:03;7.10;1.00
9800;DHT22;4939;52.00085300;4.17406100;2023-03-01T13:55:40;7.10;1.00
9800;DHT22;4939;52.00085300;4.17406100;2023-03-01T14:00:41;7.10;99.90
9800;DHT22;4939;52.00085300;4.17406100;2023-03-01T14:03:15;7.10;99.90
9800;DHT22;4939;52.00085300;4.17406100;2023-03-01T14:06:02;7.20;99.90
9800;DHT22;4939;52.00085300;4.17406100;2023-03-01T14:08:30;7.20;99.90
9800;DHT22;4939;52.00085300;4.17406100;2023-03-01T14:11:21;7.20;99.90
9800;DHT22;4939;52.00085300;4.17406100;2023-03-01T14:17:06;7.20;96.10
9800;DHT22;4939;52.00085300;4.17406100;2023-03-01T14:19:33;7.30;99.90
9800;DHT22;4939;52.00085300;4.17406100;2023-03-01T14:24:49;7.40;99.90
9800;DHT22;4939;52.00085300;4.17406100;2023-03-01T14:27:15;7.40;43.80
9800;DHT22;4939;52.00085300;4.17406100;2023-03-01T14:29:42;7.40;1.00
9800;DHT22;4939;52.00085300;4.17406100;2023-03-01T14:32:16;7.30;1.00
9800;DHT22;4939;52.00085300;4.17406100;2023-03-01T14:34:45;7.40;1.00
9800;DHT22;4939;52.00085300;4.17406100;2023-03-01T14:37:22;7.40;1.00
9800;DHT22;4939;52.00085300;4.17406100;2023-03-01T14:39:49;7.40;1.00
9800;DHT22;4939;52.00085300;4.17406100;2023-03-01T14:42:15;7.50;1.00
9800;DHT22;4939;52.00085300;4.17406100;2023-03-01T14:44:43;7.60;1.00
9800;DHT22;4939;52.00085300;4.17406100;2023-03-01T14:47:14;7.90;1.00
9800;DHT22;4939;52.00085300;4.17406100;2023-03-01T14:49:41;8.10;1.00
9800;DHT22;4939;52.00085300;4.17406100;2023-03-01T14:52:18;8.40;1.00
9800;DHT22;4939;52.00085300;4.17406100;2023-03-01T14:54:48;8.50;1.00
9800;DHT22;4939;52.00085300;4.17406100;2023-03-01T14:57:25;8.70;1.00
9800;DHT22;4939;52.00085300;4.17406100;2023-03-01T14:59:53;8.80;1.00
9800;DHT22;4939;52.00085300;4.17406100;2023-03-01T15:02:22;8.90;1.00
9800;DHT22;4939;52.00085300;4.17406100;2023-03-01T15:05:00;8.90;1.00
9800;DHT22;4939;52.00085300;4.17406100;2023-03-01T15:07:31;9.00;1.00
9800;DHT22;4939;52.00085300;4.17406100;2023-03-01T15:10:00;9.10;1.00
9800;DHT22;4939;52.00085300;4.17406100;2023-03-01T15:14:59;9.10;1.00
9800;DHT22;4939;52.00085300;4.17406100;2023-03-01T15:17:36;9.20;1.00
9800;DHT22;4939;52.00085300;4.17406100;2023-03-01T15:20:06;9.20;1.00
9800;DHT22;4939;52.00085300;4.17406100;2023-03-01T15:22:32;9.30;1.00
9800;DHT22;4939;52.00085300;4.17406100;2023-03-01T15:24:58;9.10;1.00
9800;DHT22;4939;52.00085300;4.17406100;2023-03-01T15:27:25;9.00;1.00
9800;DHT22;4939;52.00085300;4.17406100;2023-03-01T15:29:59;9.00;1.00
9800;DHT22;4939;52.00085300;4.17406100;2023-03-01T15:32:33;8.90;1.00
9800;DHT22;4939;52.00085300;4.17406100;2023-03-01T15:35:01;8.90;1.00
9800;DHT22;4939;52.00085300;4.17406100;2023-03-01T15:37:53;8.80;1.00
9800;DHT22;4939;52.00085300;4.17406100;2023-03-01T15:40:24;8.70;1.00
9800;DHT22;4939;52.00085300;4.17406100;2023-03-01T15:42:57;8.60;1.00
9800;DHT22;4939;52.00085300;4.17406100;2023-03-01T15:45:26;8.40;1.00
9800;DHT22;4939;52.00085300;4.17406100;2023-03-01T15:47:57;8.30;1.00
9800;DHT22;4939;52.00085300;4.17406100;2023-03-01T15:50:29;8.20;1.00